Time;durP1;ratioP1;P1;durP2;ratioP2;P2;SDS_P1;SDS_P2;PMS_P1;PMS_P2;Temp;Humidity;BMP_temperature;BMP_pressure;BME280_temperature;BME280_humidity;BME280_pressure;Samples;Min_cycle;Max_cycle;Signal;HPM_P1;HPM_P2
2022/02/11 00:01:03;;;;;;;51.75;23.20;;;;;;;2.60;98.53;97960.00;4989591;28;20025;-85
2022/02/11 00:08:39;;;;;;;39.28;19.77;;;;;;;2.55;98.68;97968.00;4997437;28;20038;-84
2022/02/11 00:11:05;;;;;;;35.67;17.65;;;;;;;2.53;99.28;97968.94;4995449;28;20124;-84
2022/02/11 00:13:30;;;;;;;36.50;18.63;;;;;;;2.54;99.01;97971.56;4984111;28;20021;-84
2022/02/11 00:15:56;;;;;;;41.22;19.60;;;;;;;2.49;98.98;97970.78;4990357;28;20029;-83
2022/02/11 00:18:22;;;;;;;41.20;19.80;;;;;;;2.46;98.86;97976.13;4994075;28;20029;-84
2022/02/11 00:20:49;;;;;;;42.75;18.52;;;;;;;2.30;99.35;97964.22;4986141;28;20033;-85
2022/02/11 00:23:19;;;;;;;37.38;17.83;;;;;;;2.40;100.00;97981.56;4994325;28;20129;-84
2022/02/11 00:25:51;;;;;;;44.33;20.33;;;;;;;2.33;100.00;97972.06;5006789;28;20033;-84
2022/02/11 00:33:27;;;;;;;38.63;18.75;;;;;;;2.50;100.00;97974.31;5002428;28;20079;-84
2022/02/11 00:35:59;;;;;;;45.15;19.45;;;;;;;2.50;99.57;97975.16;5005178;28;20064;-84
2022/02/11 01:03:03;;;;;;;14.82;8.85;;;;;;;2.72;94.36;97964.97;5003668;28;20036;-84
2022/02/11 01:05:28;;;;;;;19.70;8.32;;;;;;;2.76;94.40;97971.06;5003632;28;20124;-84
2022/02/11 01:07:54;;;;;;;27.15;13.18;;;;;;;2.72;94.51;97964.97;4996702;28;20068;-83
2022/02/11 01:10:21;;;;;;;32.40;14.43;;;;;;;2.60;95.03;97958.22;4987768;28;20061;-84
2022/02/11 01:12:46;;;;;;;27.13;12.85;;;;;;;2.57;95.54;97957.41;4983740;28;20025;-85
2022/02/11 01:15:12;;;;;;;30.80;14.52;;;;;;;2.45;96.30;97957.72;5006730;28;20025;-85
2022/02/11 01:17:46;;;;;;;27.85;13.60;;;;;;;2.42;96.73;97944.59;4986456;28;20030;-85
2022/02/11 01:20:21;;;;;;;27.25;13.52;;;;;;;2.34;97.02;97950.03;4984171;28;20030;-85
2022/02/11 01:36:00;;;;;;;22.60;10.98;;;;;;;2.26;98.61;97941.44;5003245;28;20036;-84
2022/02/11 01:49:29;;;;;;;22.40;11.30;;;;;;;2.15;99.58;97925.00;5010442;28;20413;-84
2022/02/11 01:57:13;;;;;;;22.60;11.23;;;;;;;2.33;98.50;97935.13;5011975;28;20425;-84
2022/02/11 02:12:59;;;;;;;20.98;8.43;;;;;;;2.08;99.70;97949.75;5007818;28;20497;-84
2022/02/11 02:50:25;;;;;;;13.48;6.35;;;;;;;1.54;100.00;97957.91;5003560;28;20095;-84
2022/02/11 02:58:47;;;;;;;18.70;7.38;;;;;;;1.82;99.37;97952.94;4980637;28;20120;-84
2022/02/11 03:01:40;;;;;;;10.95;6.32;;;;;;;2.01;98.54;97961.34;4994337;28;20052;-84
2022/02/11 04:55:22;;;;;;;55.47;22.50;;;;;;;0.53;100.00;98000.09;5010096;28;20056;-84
2022/02/11 05:00:32;;;;;;;53.40;22.48;;;;;;;0.67;100.00;98015.69;5017052;28;20055;-83
2022/02/11 05:02:58;;;;;;;57.45;26.08;;;;;;;0.72;100.00;98005.06;4983819;28;20031;-85
2022/02/11 05:05:24;;;;;;;59.88;26.20;;;;;;;0.70;100.00;98026.16;4990033;28;20033;-82
2022/02/11 05:07:50;;;;;;;53.63;25.77;;;;;;;0.75;100.00;98031.34;4999732;28;20409;-86
2022/02/11 05:10:16;;;;;;;57.10;27.77;;;;;;;0.67;100.00;98012.19;4993506;28;20036;-85
2022/02/11 05:12:43;;;;;;;76.35;28.67;;;;;;;0.66;100.00;98006.03;5006505;28;20049;-84
2022/02/11 05:15:10;;;;;;;62.92;27.85;;;;;;;0.72;100.00;98007.69;5004425;28;20029;-85
2022/02/11 05:17:37;;;;;;;63.63;28.38;;;;;;;0.80;100.00;98026.88;5008190;28;20025;-84
2022/02/11 05:20:04;;;;;;;72.45;30.65;;;;;;;0.72;100.00;98028.75;5007924;28;20396;-86
2022/02/11 05:22:29;;;;;;;73.95;32.83;;;;;;;0.59;100.00;98008.78;4988601;28;20027;-86
2022/02/11 05:24:55;;;;;;;78.20;37.25;;;;;;;0.70;100.00;98027.91;4990208;28;20021;-85
2022/02/11 05:27:21;;;;;;;99.55;42.50;;;;;;;0.80;100.00;98047.94;4987240;28;20034;-92
2022/02/11 05:29:46;;;;;;;132.23;54.55;;;;;;;0.77;100.00;98040.09;4991886;28;20397;-87
2022/02/11 05:32:12;;;;;;;120.82;51.83;;;;;;;0.80;100.00;98050.59;4994048;28;20025;-85
2022/02/11 05:34:37;;;;;;;124.47;50.30;;;;;;;0.83;100.00;98063.69;4996660;28;20037;-85
2022/02/11 05:37:03;;;;;;;134.75;57.85;;;;;;;0.76;100.00;98067.31;4994962;28;20554;-86
2022/02/11 05:39:29;;;;;;;150.35;62.80;;;;;;;0.71;100.00;98053.34;4992075;28;20579;-87
2022/02/11 05:41:54;;;;;;;143.70;62.55;;;;;;;0.85;100.00;98054.00;4992966;28;20026;-87
2022/02/11 05:44:20;;;;;;;173.50;71.95;;;;;;;0.91;100.00;98069.69;5004039;28;20029;-85
2022/02/11 05:46:46;;;;;;;170.60;76.65;;;;;;;0.90;100.00;98046.88;4993634;28;20026;-86
2022/02/11 05:49:11;;;;;;;215.52;89.32;;;;;;;1.01;100.00;98058.16;4996125;28;20045;-84
2022/02/11 05:51:37;;;;;;;224.75;96.25;;;;;;;1.00;100.00;98069.56;4996985;28;20033;-76
2022/02/11 05:54:02;;;;;;;223.65;97.90;;;;;;;1.08;100.00;98070.28;5016374;28;20529;-82
2022/02/11 05:56:28;;;;;;;218.57;98.93;;;;;;;1.15;100.00;98071.94;4986721;28;20464;-84
2022/02/11 05:58:54;;;;;;;247.30;108.30;;;;;;;1.17;100.00;98067.50;4987198;28;20350;-85
2022/02/11 06:01:19;;;;;;;229.45;98.53;;;;;;;1.20;100.00;98059.56;4988861;28;20040;-85
2022/02/11 06:03:45;;;;;;;193.52;84.10;;;;;;;1.30;100.00;98079.59;4993192;28;20116;-84
2022/02/11 06:06:11;;;;;;;174.80;76.28;;;;;;;1.19;100.00;98039.41;5011805;28;20485;-84
2022/02/11 06:08:36;;;;;;;169.30;73.63;;;;;;;1.32;100.00;98056.75;4987282;28;20025;-82
2022/02/11 06:11:02;;;;;;;180.20;73.90;;;;;;;1.46;100.00;98083.72;5007260;28;20489;-84
2022/02/11 06:13:28;;;;;;;159.20;66.78;;;;;;;1.54;100.00;98088.81;4993866;28;20026;-84
2022/02/11 06:15:55;;;;;;;120.03;55.00;;;;;;;1.60;100.00;98094.88;4983659;28;20029;-84
2022/02/11 06:18:21;;;;;;;80.38;36.15;;;;;;;1.85;100.00;98079.47;5002772;28;20049;-84
2022/02/11 06:20:46;;;;;;;78.53;34.92;;;;;;;2.15;98.28;98078.84;4991648;28;20033;-85
2022/02/11 06:23:12;;;;;;;135.88;59.22;;;;;;;3.44;91.76;98068.00;5008597;28;20033;-85
2022/02/11 06:25:43;;;;;;;60.03;27.50;;;;;;;5.83;77.87;98076.59;4989905;28;20033;-83
2022/02/11 06:28:11;;;;;;;67.32;27.10;;;;;;;7.77;66.02;98060.22;4989396;28;20061;-84
2022/02/11 06:30:37;;;;;;;75.43;31.55;;;;;;;8.76;59.29;98059.34;4994223;28;20124;-85
2022/02/11 06:33:03;;;;;;;65.82;33.38;;;;;;;9.47;56.02;98066.59;4989216;28;20033;-85
2022/02/11 06:35:34;;;;;;;62.45;31.00;;;;;;;10.95;52.07;98053.41;4997706;28;20021;-86
2022/02/11 06:38:02;;;;;;;63.35;28.98;;;;;;;12.52;47.55;98043.25;5010555;28;20481;-85
2022/02/11 06:40:45;;;;;;;56.15;30.25;;;;;;;14.18;43.71;98036.81;5006890;28;20028;-87
2022/02/11 06:43:32;;;;;;;109.50;56.50;;;;;;;14.68;41.39;98001.00;5007792;28;20036;-85
2022/02/11 06:45:58;;;;;;;76.43;39.45;;;;;;;14.77;40.85;98012.94;5019097;28;20613;-85
2022/02/11 06:48:25;;;;;;;88.20;46.30;;;;;;;15.98;39.09;98010.19;5004434;28;20065;-85
2022/02/11 06:50:54;;;;;;;81.20;39.55;;;;;;;16.48;37.53;98022.50;5012376;28;20504;-84
2022/02/11 06:53:30;;;;;;;72.90;39.70;;;;;;;16.54;37.68;98022.06;5011663;28;20085;-84
2022/02/11 06:55:56;;;;;;;83.93;41.58;;;;;;;17.05;36.75;98008.06;5022046;28;20049;-84
2022/02/11 06:58:22;;;;;;;79.35;39.65;;;;;;;16.95;36.60;98024.16;5004478;28;20139;-85
2022/02/11 07:00:49;;;;;;;95.38;41.10;;;;;;;17.66;35.55;98022.88;4996589;28;20017;-84
2022/02/11 07:03:15;;;;;;;100.22;41.40;;;;;;;17.99;34.90;98017.38;5015979;28;20405;-85
2022/02/11 07:05:41;;;;;;;67.47;39.10;;;;;;;17.63;35.02;98002.34;5002729;28;20512;-85
2022/02/11 07:08:08;;;;;;;82.60;40.95;;;;;;;17.71;34.99;98023.38;4995204;28;20109;-85
2022/02/11 07:10:34;;;;;;;95.00;51.95;;;;;;;18.24;34.12;98006.13;4991508;28;20029;-85
2022/02/11 07:12:59;;;;;;;140.20;76.55;;;;;;;18.50;34.04;98030.16;4991670;28;20087;-84
2022/02/11 07:15:25;;;;;;;163.05;90.43;;;;;;;18.63;33.48;98023.56;4996537;28;20040;-86
2022/02/11 07:17:51;;;;;;;193.10;111.22;;;;;;;18.37;34.10;98038.47;4999251;28;20033;-84
2022/02/11 07:20:17;;;;;;;238.77;141.40;;;;;;;17.40;35.48;98033.13;4989235;28;20034;-84
2022/02/11 07:22:42;;;;;;;217.15;125.22;;;;;;;17.68;34.94;98027.19;4993496;28;20483;-85
2022/02/11 07:25:13;;;;;;;242.23;132.38;;;;;;;18.06;34.61;98032.06;4996872;28;20030;-84
2022/02/11 07:27:39;;;;;;;245.43;128.95;;;;;;;18.87;33.54;98028.69;5009313;28;20102;-85
2022/02/11 07:30:06;;;;;;;219.68;122.43;;;;;;;19.22;33.21;98014.72;4986652;28;20018;-86
2022/02/11 07:32:31;;;;;;;284.63;173.85;;;;;;;19.20;33.21;98019.41;4991346;28;20026;-88
2022/02/11 07:35:03;;;;;;;219.50;121.75;;;;;;;19.22;33.45;98020.16;5012070;28;20188;-86
2022/02/11 07:37:35;;;;;;;175.63;97.17;;;;;;;19.47;33.04;98031.41;5012264;28;20029;-86
2022/02/11 07:40:01;;;;;;;;;;;;;;;19.71;32.72;98025.63;4997563;28;20038;-86
2022/02/11 07:42:26;;;;;;;169.63;85.30;;;;;;;19.32;33.02;98027.31;5012396;28;20015;-87
2022/02/11 07:44:53;;;;;;;104.40;58.13;;;;;;;20.06;31.47;98016.91;5001777;28;20033;-87
2022/02/11 07:47:18;;;;;;;116.75;59.17;;;;;;;20.07;31.43;98007.78;4995668;28;20382;-87
2022/02/11 07:49:44;;;;;;;99.50;55.72;;;;;;;19.88;31.42;98022.22;4988605;28;20041;-87
2022/02/11 07:52:11;;;;;;;96.55;55.05;;;;;;;20.49;30.88;98013.78;5001232;28;20140;-88
2022/02/11 07:54:37;;;;;;;93.85;55.20;;;;;;;20.12;31.28;98004.66;5008224;28;20061;-84
2022/02/11 07:57:03;;;;;;;96.57;57.28;;;;;;;20.10;31.18;97985.75;4994294;28;20143;-86
2022/02/11 07:59:28;;;;;;;86.80;45.67;;;;;;;20.34;30.15;97988.91;5013118;28;20037;-88
2022/02/11 08:01:54;;;;;;;84.70;45.00;;;;;;;20.71;29.97;97988.13;4996662;28;20034;-87
2022/02/11 08:04:20;;;;;;;79.40;48.42;;;;;;;20.59;30.05;97997.47;5006474;28;20415;-87
2022/02/11 08:06:48;;;;;;;91.60;51.30;;;;;;;20.57;30.72;97994.91;4996881;28;20033;-86
2022/02/11 08:09:14;;;;;;;88.57;47.17;;;;;;;20.87;29.94;98005.56;4990624;28;20026;-85
2022/02/11 08:11:40;;;;;;;94.90;51.30;;;;;;;20.87;29.96;98004.69;4990963;28;20056;-83
2022/02/11 08:14:06;;;;;;;94.68;53.63;;;;;;;20.98;29.32;98010.81;4998578;28;20477;-82
2022/02/11 08:16:31;;;;;;;88.43;53.72;;;;;;;21.05;29.28;98000.19;4999205;28;20037;-82
2022/02/11 08:18:57;;;;;;;120.32;66.68;;;;;;;21.01;29.10;97991.47;4994290;28;20501;-82
2022/02/11 08:21:24;;;;;;;88.78;54.35;;;;;;;20.91;28.94;97996.09;4986991;28;20347;-83
2022/02/11 08:23:50;;;;;;;93.57;56.42;;;;;;;21.24;29.01;98005.59;4979096;28;20025;-82
2022/02/11 08:26:19;;;;;;;98.78;52.88;;;;;;;21.29;29.24;98007.84;4994298;28;20063;-81
2022/02/11 08:28:45;;;;;;;84.93;51.30;;;;;;;21.61;29.28;97986.47;4994537;28;20026;-82
2022/02/11 08:31:11;;;;;;;93.10;48.78;;;;;;;21.70;28.88;97996.47;4987066;28;20044;-83
2022/02/11 08:33:37;;;;;;;75.78;45.20;;;;;;;22.28;28.05;97993.31;4980481;28;20037;-83
2022/02/11 08:36:03;;;;;;;74.03;45.22;;;;;;;22.17;27.91;97982.66;5008183;28;20041;-83
2022/02/11 08:38:29;;;;;;;62.47;39.67;;;;;;;22.72;27.40;97983.31;4991748;28;20126;-82
2022/02/11 08:40:55;;;;;;;65.10;38.00;;;;;;;23.05;26.51;97991.53;4978243;28;20409;-83
2022/02/11 08:43:21;;;;;;;65.03;38.58;;;;;;;22.20;27.14;97964.13;4978224;28;20068;-84
2022/02/11 08:45:48;;;;;;;70.63;38.88;;;;;;;23.05;26.98;97986.06;4994331;28;20033;-82
2022/02/11 08:48:14;;;;;;;41.20;26.52;;;;;;;23.22;25.66;97970.66;4994471;28;20511;-82
2022/02/11 08:50:41;;;;;;;51.22;30.15;;;;;;;23.47;26.32;97963.44;4985277;28;20456;-83
2022/02/11 08:53:08;;;;;;;50.28;31.70;;;;;;;23.91;25.66;97973.13;4978111;28;20029;-83
2022/02/11 08:55:35;;;;;;;52.85;30.40;;;;;;;24.17;25.82;97973.88;4974258;28;20116;-81
2022/02/11 08:58:01;;;;;;;64.50;28.48;;;;;;;24.67;25.39;97968.22;4980189;28;20129;-83
2022/02/11 09:00:30;;;;;;;35.72;20.98;;;;;;;24.46;25.22;97967.88;4994046;28;20505;-83
2022/02/11 09:02:57;;;;;;;31.95;19.48;;;;;;;22.63;27.05;97969.59;4970827;28;20060;-82
2022/02/11 09:05:24;;;;;;;29.15;15.93;;;;;;;23.36;26.34;97980.94;4994269;28;20030;-81
2022/02/11 09:07:53;;;;;;;28.05;15.63;;;;;;;22.36;26.95;97977.91;4982915;28;20173;-83
2022/02/11 09:10:20;;;;;;;28.27;17.08;;;;;;;22.04;27.21;97967.56;4996970;28;20026;-82
2022/02/11 09:12:45;;;;;;;25.42;16.48;;;;;;;22.79;26.96;97963.41;4975523;28;20026;-81
2022/02/11 09:15:11;;;;;;;32.70;15.27;;;;;;;24.28;25.58;97968.06;4982490;28;20026;-84
2022/02/11 09:17:37;;;;;;;36.55;19.35;;;;;;;23.88;25.63;97959.78;4972605;28;20482;-83
2022/02/11 09:20:02;;;;;;;28.95;13.98;;;;;;;24.58;25.37;97957.47;4993972;28;20036;-83
2022/02/11 09:22:30;;;;;;;37.90;18.67;;;;;;;24.94;24.41;97952.47;4989354;28;20044;-82
2022/02/11 09:24:56;;;;;;;33.10;17.67;;;;;;;24.66;24.36;97947.38;4989021;28;20568;-81
2022/02/11 09:27:22;;;;;;;28.00;15.23;;;;;;;24.46;24.37;97935.06;4985238;28;20049;-82
2022/02/11 09:29:48;;;;;;;26.73;15.05;;;;;;;24.81;23.93;97939.31;4970077;28;20552;-82
2022/02/11 09:32:14;;;;;;;29.95;16.88;;;;;;;24.68;23.45;97928.03;4990218;28;20061;-82
2022/02/11 09:34:40;;;;;;;27.95;15.80;;;;;;;24.77;23.73;97916.03;4988320;28;20548;-83
2022/02/11 09:37:05;;;;;;;28.52;16.42;;;;;;;25.62;23.47;97922.63;4996492;28;20093;-82
2022/02/11 09:39:31;;;;;;;29.85;12.73;;;;;;;25.85;22.63;97924.34;4986357;28;20022;-82
2022/02/11 09:41:58;;;;;;;24.05;12.40;;;;;;;25.27;23.01;97918.47;4987833;28;20121;-82
2022/02/11 09:44:28;;;;;;;19.65;9.27;;;;;;;25.72;22.58;97923.22;4984603;28;20026;-82
2022/02/11 09:46:55;;;;;;;23.02;9.65;;;;;;;26.07;22.16;97916.31;4966296;28;20494;-82
2022/02/11 09:49:22;;;;;;;29.50;10.25;;;;;;;26.64;21.55;97911.22;4987952;28;20066;-82
2022/02/11 09:51:53;;;;;;;27.52;12.15;;;;;;;27.30;21.36;97910.31;4981865;28;20030;-82
2022/02/11 09:54:21;;;;;;;21.80;11.10;;;;;;;26.70;21.53;97900.31;4979910;28;20025;-82
2022/02/11 09:56:49;;;;;;;23.65;10.98;;;;;;;27.14;21.03;97891.25;4985432;28;20161;-82
2022/02/11 09:59:14;;;;;;;16.08;9.82;;;;;;;26.95;20.75;97895.44;4986110;28;20433;-81
2022/02/11 10:01:43;;;;;;;17.10;10.65;;;;;;;27.24;20.43;97881.69;4995338;28;20034;-81
2022/02/11 10:04:18;;;;;;;25.13;16.30;;;;;;;27.30;20.64;97886.44;4982261;28;20023;-82
2022/02/11 10:06:48;;;;;;;17.58;10.15;;;;;;;27.76;20.15;97872.41;4991843;28;20026;-83
2022/02/11 10:09:15;;;;;;;39.72;12.38;;;;;;;28.48;19.85;97862.13;4968809;28;20108;-83
2022/02/11 10:11:45;;;;;;;15.85;8.70;;;;;;;28.66;19.43;97876.28;4977461;28;20027;-84
2022/02/11 10:14:33;;;;;;;18.98;9.90;;;;;;;28.00;20.07;97872.03;4973672;28;20129;-85
2022/02/11 10:17:04;;;;;;;78.30;45.78;;;;;;;27.55;20.32;97875.13;4991516;28;20033;-85
2022/02/11 10:19:44;;;;;;;23.77;12.65;;;;;;;28.00;19.95;97863.78;4989669;28;20026;-84
2022/02/11 10:22:16;;;;;;;22.40;11.88;;;;;;;28.58;19.54;97857.09;4973743;28;20030;-84
2022/02/11 10:24:42;;;;;;;18.77;10.27;;;;;;;28.54;19.58;97844.81;4979081;28;20029;-83
2022/02/11 10:27:18;;;;;;;26.75;11.13;;;;;;;27.54;20.80;97851.44;4986379;28;20092;-84
2022/02/11 10:29:44;;;;;;;34.50;12.00;;;;;;;28.16;20.60;97843.41;4993815;28;20478;-85
2022/02/11 10:32:12;;;;;;;15.52;7.10;;;;;;;27.40;20.41;97826.53;4966044;28;20026;-84
2022/02/11 10:34:39;;;;;;;14.32;6.18;;;;;;;27.90;20.16;97824.75;4993832;28;20041;-83
2022/02/11 10:37:09;;;;;;;17.23;5.90;;;;;;;27.39;19.92;97822.06;4973173;28;20026;-84
2022/02/11 10:39:37;;;;;;;18.50;7.32;;;;;;;26.66;20.80;97810.31;4970845;28;20142;-85
2022/02/11 10:42:07;;;;;;;11.50;7.13;;;;;;;27.37;20.08;97818.66;4966019;28;20034;-85
2022/02/11 10:44:36;;;;;;;16.00;9.60;;;;;;;28.10;19.75;97802.94;4986886;28;20022;-83
2022/02/11 10:47:08;;;;;;;10.13;5.25;;;;;;;28.06;19.23;97796.97;4984935;28;20486;-85
2022/02/11 10:49:50;;;;;;;10.23;4.40;;;;;;;28.47;18.96;97795.19;4981328;28;20095;-84
2022/02/11 10:52:23;;;;;;;7.50;4.65;;;;;;;29.54;18.41;97787.25;4985643;28;20029;-84
2022/02/11 10:54:51;;;;;;;8.13;4.60;;;;;;;29.09;18.41;97779.66;4992087;28;20121;-84
2022/02/11 10:57:20;;;;;;;9.73;4.10;;;;;;;28.97;18.85;97788.53;4999880;28;20036;-85
2022/02/11 10:59:47;;;;;;;7.63;4.70;;;;;;;29.61;18.32;97781.75;5015601;28;20128;-84
2022/02/11 11:02:21;;;;;;;8.82;5.25;;;;;;;29.72;18.60;97764.63;5016266;28;20033;-84
2022/02/11 11:04:52;;;;;;;7.20;4.57;;;;;;;28.44;19.22;97761.72;5009234;28;20112;-84
2022/02/11 11:07:28;;;;;;;8.73;4.57;;;;;;;26.87;20.45;97755.50;4995289;28;20108;-84
2022/02/11 11:46:15;;;;;;;9.90;3.50;;;;;;;28.10;19.03;97702.00;5105709;27;20980;-77
2022/02/11 11:48:59;;;;;;;10.07;4.38;;;;;;;28.98;18.00;97704.81;5098053;28;20028;-76
2022/02/11 11:51:31;;;;;;;6.88;3.20;;;;;;;29.09;18.15;97700.63;5103899;28;20031;-76
2022/02/11 11:54:15;;;;;;;6.53;2.85;;;;;;;28.01;18.25;97689.44;5096133;28;20028;-75
2022/02/11 11:57:02;;;;;;;5.60;3.40;;;;;;;28.55;18.32;97685.97;5099765;28;20760;-76
2022/02/11 11:59:46;;;;;;;13.23;3.25;;;;;;;29.34;17.67;97678.88;5093309;28;20040;-76
2022/02/11 12:02:25;;;;;;;5.95;3.05;;;;;;;29.19;17.54;97668.00;5092752;28;20051;-76
2022/02/11 12:04:54;;;;;;;4.75;2.92;;;;;;;28.73;17.75;97661.50;5104384;28;20056;-76
2022/02/11 12:07:30;;;;;;;20.33;3.90;;;;;;;28.83;18.11;97661.94;5077568;28;20036;-76
2022/02/11 12:09:58;;;;;;;7.95;4.97;;;;;;;29.90;17.80;97660.03;5090071;28;20024;-75
2022/02/11 12:12:28;;;;;;;8.30;5.22;;;;;;;30.11;17.36;97645.97;5092541;28;20024;-78
2022/02/11 12:14:56;;;;;;;5.63;3.20;;;;;;;28.94;18.35;97648.44;5067045;28;20066;-75
2022/02/11 12:17:23;;;;;;;17.60;8.05;;;;;;;28.32;18.88;97654.09;5092327;28;20064;-76
2022/02/11 12:19:49;;;;;;;7.65;4.00;;;;;;;27.05;19.90;97648.81;5085393;28;20028;-76
2022/02/11 12:22:16;;;;;;;5.63;3.60;;;;;;;26.50;20.19;97651.31;5093526;28;20104;-76
2022/02/11 12:27:37;;;;;;;5.30;3.53;;;;;;;26.90;19.51;97635.16;5090191;28;20050;-76
2022/02/11 12:30:03;;;;;;;10.90;3.58;;;;;;;27.95;18.70;97637.97;5098719;28;20470;-77
2022/02/11 12:32:33;;;;;;;10.63;5.68;;;;;;;28.54;18.12;97635.56;5094776;28;20032;-75
2022/02/11 12:35:02;;;;;;;10.07;4.30;;;;;;;27.16;19.18;97637.31;5083684;28;20020;-76
2022/02/11 12:37:29;;;;;;;8.13;3.03;;;;;;;24.94;20.92;97626.72;5076128;28;20028;-75
2022/02/11 12:40:06;;;;;;;5.85;2.88;;;;;;;24.87;21.13;97636.69;5091747;28;20024;-75
2022/02/11 12:42:34;;;;;;;18.83;4.47;;;;;;;25.64;20.65;97630.91;5094656;28;20031;-75
2022/02/11 12:45:00;;;;;;;7.57;3.65;;;;;;;26.12;20.39;97620.38;5085281;28;20051;-77
2022/02/11 12:47:26;;;;;;;11.38;4.70;;;;;;;26.26;19.90;97622.31;5072543;28;20038;-77
2022/02/11 12:49:52;;;;;;;23.13;3.88;;;;;;;26.94;19.83;97624.63;5088453;28;20031;-77
2022/02/11 12:52:25;;;;;;;5.53;3.88;;;;;;;27.02;19.07;97616.25;5083399;28;20025;-76
2022/02/11 12:55:03;;;;;;;3.13;2.08;;;;;;;27.21;19.23;97629.31;5088782;28;20478;-76
2022/02/11 12:57:30;;;;;;;8.82;3.58;;;;;;;27.94;19.15;97614.25;5072161;28;20092;-77
2022/02/11 12:59:57;;;;;;;17.40;6.40;;;;;;;28.20;18.62;97611.69;5074871;28;20075;-77
2022/02/11 13:02:27;;;;;;;12.77;5.28;;;;;;;28.60;18.32;97609.09;5089407;28;20024;-77
2022/02/11 13:05:05;;;;;;;11.57;3.70;;;;;;;29.37;17.79;97602.09;5089041;28;20150;-76
2022/02/11 13:07:31;;;;;;;8.80;3.55;;;;;;;29.52;17.91;97607.41;5088925;28;20035;-75
2022/02/11 13:09:57;;;;;;;3.85;3.00;;;;;;;29.19;18.02;97596.34;5090676;28;20367;-76
2022/02/11 13:12:23;;;;;;;4.95;3.25;;;;;;;28.82;18.50;97592.25;5089292;28;20092;-76
2022/02/11 13:14:49;;;;;;;3.42;2.72;;;;;;;29.19;17.80;97595.50;5088764;28;20111;-76
2022/02/11 13:17:14;;;;;;;5.85;3.13;;;;;;;29.43;18.05;97590.22;5072210;28;20061;-76
2022/02/11 13:19:40;;;;;;;14.43;4.40;;;;;;;29.92;17.46;97580.63;5070881;28;20032;-76
2022/02/11 13:22:05;;;;;;;13.90;4.68;;;;;;;29.11;18.04;97591.00;5074717;28;20032;-76
2022/02/11 13:24:34;;;;;;;5.60;3.30;;;;;;;29.02;18.25;97589.53;5089143;28;20028;-76
2022/02/11 13:27:00;;;;;;;11.63;4.50;;;;;;;29.31;17.72;97580.91;5075331;28;20039;-77
2022/02/11 13:29:26;;;;;;;21.13;5.20;;;;;;;29.57;18.19;97577.25;5068818;28;20032;-77
2022/02/11 13:31:53;;;;;;;15.52;3.90;;;;;;;29.91;17.53;97584.44;5086180;28;20475;-76
2022/02/11 13:34:19;;;;;;;7.90;3.55;;;;;;;28.72;18.67;97591.81;5082433;28;20048;-76
2022/02/11 13:36:50;;;;;;;15.13;3.90;;;;;;;28.62;18.78;97590.47;5084929;28;20047;-76
2022/02/11 13:39:28;;;;;;;15.43;3.78;;;;;;;28.93;18.87;97586.13;5082930;28;20020;-75
2022/02/11 13:41:54;;;;;;;10.77;3.45;;;;;;;29.73;17.64;97587.84;5068740;28;20025;-76
2022/02/11 13:44:21;;;;;;;9.90;3.90;;;;;;;30.12;17.82;97586.94;5065961;28;20047;-78
2022/02/11 13:46:52;;;;;;;10.43;3.78;;;;;;;28.97;18.17;97587.41;5079128;28;20027;-76
2022/02/11 13:49:18;;;;;;;5.40;3.30;;;;;;;28.21;18.54;97580.34;5079335;28;20363;-75
2022/02/11 13:53:01;;;;;;;15.68;3.85;;;;;;;28.77;18.77;97589.25;5073937;28;20544;-76
2022/02/11 13:54:30;;;;;;;9.57;3.72;;;;;;;29.01;18.28;97594.19;5068510;28;20036;-76
2022/02/11 13:56:55;;;;;;;6.60;3.00;;;;;;;29.01;18.19;97590.56;5078017;28;20387;-76
2022/02/11 13:59:30;;;;;;;10.82;3.53;;;;;;;27.90;19.05;97577.22;5079395;28;20032;-76
2022/02/11 14:02:08;;;;;;;6.65;3.72;;;;;;;28.43;18.44;97583.84;5076820;28;20057;-75
2022/02/11 14:04:34;;;;;;;6.85;4.53;;;;;;;28.81;18.34;97586.94;5083861;28;20111;-76
2022/02/11 14:07:01;;;;;;;7.63;4.13;;;;;;;29.16;18.30;97582.13;5068138;28;20108;-76
2022/02/11 14:09:37;;;;;;;11.88;4.30;;;;;;;28.62;18.62;97582.19;5067923;28;20059;-75
2022/02/11 14:12:23;;;;;;;27.70;5.50;;;;;;;28.45;18.82;97582.59;5068539;28;20040;-76
2022/02/11 14:14:51;;;;;;;73.40;42.35;;;;;;;28.44;19.31;97580.03;5084837;28;20063;-76
2022/02/11 14:17:17;;;;;;;15.00;5.45;;;;;;;28.58;18.74;97578.19;5089053;28;20036;-77
2022/02/11 14:19:44;;;;;;;57.42;40.10;;;;;;;28.38;19.19;97575.34;5087844;28;20505;-77
2022/02/11 14:22:11;;;;;;;24.95;12.57;;;;;;;28.63;18.68;97578.41;5087425;28;20036;-75
2022/02/11 14:24:37;;;;;;;15.77;8.55;;;;;;;28.28;18.82;97567.47;5087507;28;20036;-76
2022/02/11 14:27:03;;;;;;;15.23;6.15;;;;;;;28.15;18.63;97577.59;5070487;28;20063;-76
2022/02/11 14:29:29;;;;;;;20.33;7.32;;;;;;;28.37;18.92;97569.00;5088295;28;20067;-76
2022/02/11 14:31:54;;;;;;;19.33;6.43;;;;;;;28.47;18.64;97580.47;5070588;28;20050;-76
2022/02/11 14:34:20;;;;;;;18.60;5.38;;;;;;;28.49;19.19;97572.84;5050400;28;20159;-76
2022/02/11 14:36:46;;;;;;;54.55;8.07;;;;;;;28.69;18.85;97577.59;5068202;28;20032;-77
2022/02/11 14:39:14;;;;;;;29.30;17.92;;;;;;;28.32;19.00;97567.94;5083326;28;20032;-76
2022/02/11 14:41:46;;;;;;;13.68;4.88;;;;;;;27.79;18.93;97575.88;5074052;28;20194;-76
2022/02/11 14:44:20;;;;;;;15.60;5.93;;;;;;;28.10;18.99;97569.94;5051035;28;20048;-76
2022/02/11 14:46:47;;;;;;;45.53;8.73;;;;;;;28.29;19.67;97576.59;5079664;28;20035;-76
2022/02/11 14:49:13;;;;;;;36.80;8.23;;;;;;;28.64;18.79;97574.59;5078776;28;20452;-76
2022/02/11 14:51:39;;;;;;;54.25;8.88;;;;;;;28.64;19.47;97563.59;5087160;28;20034;-77
2022/02/11 14:54:11;;;;;;;41.30;8.55;;;;;;;28.16;19.69;97563.63;5087151;28;20020;-76
2022/02/11 14:56:37;;;;;;;36.60;15.18;;;;;;;27.88;20.27;97571.06;5069357;28;20032;-77
2022/02/11 14:59:04;;;;;;;60.97;33.42;;;;;;;27.50;20.77;97586.28;5087177;28;20040;-77
2022/02/11 15:01:29;;;;;;;33.03;18.17;;;;;;;25.93;21.97;97583.47;5087483;28;20486;-77
2022/02/11 15:03:57;;;;;;;67.13;34.78;;;;;;;25.13;23.11;97583.25;5083706;28;20025;-75
2022/02/11 15:06:22;;;;;;;39.13;24.33;;;;;;;24.32;23.64;97584.88;5071759;28;20023;-75
2022/02/11 15:08:48;;;;;;;61.42;28.40;;;;;;;23.75;24.83;97590.56;5060960;28;20096;-74
2022/02/11 15:11:13;;;;;;;38.95;21.98;;;;;;;22.86;26.01;97592.56;5087227;28;20020;-74
2022/02/11 15:13:39;;;;;;;41.08;22.67;;;;;;;22.14;26.92;97596.84;5056018;28;20032;-74
2022/02/11 15:16:06;;;;;;;39.88;18.30;;;;;;;21.05;28.24;97603.88;5075749;28;20106;-75
2022/02/11 15:18:31;;;;;;;34.17;20.40;;;;;;;20.10;29.42;97616.34;5078162;28;20017;-74
2022/02/11 15:21:04;;;;;;;41.28;16.98;;;;;;;19.25;30.71;97607.56;5067115;28;20082;-74
2022/02/11 15:23:35;;;;;;;31.80;13.85;;;;;;;18.49;31.77;97608.50;5080697;28;20048;-74
2022/02/11 15:26:02;;;;;;;38.72;16.95;;;;;;;17.60;33.46;97618.44;5084728;28;20479;-74
2022/02/11 15:28:32;;;;;;;36.78;19.27;;;;;;;16.73;35.05;97632.44;5073214;28;20456;-73
2022/02/11 15:30:57;;;;;;;35.00;18.05;;;;;;;16.02;36.07;97627.66;5075991;28;20028;-73
2022/02/11 15:33:23;;;;;;;39.65;17.88;;;;;;;15.43;37.75;97636.03;5070122;28;20376;-74
2022/02/11 15:35:48;;;;;;;28.70;15.95;;;;;;;14.93;38.49;97647.22;5072711;28;20032;-74
2022/02/11 15:38:15;;;;;;;31.73;15.45;;;;;;;14.54;38.86;97657.41;5075780;28;20028;-74
2022/02/11 15:40:40;;;;;;;42.67;17.08;;;;;;;14.21;39.97;97649.16;5071266;28;20495;-74
2022/02/11 15:43:06;;;;;;;36.13;17.10;;;;;;;13.90;40.39;97655.97;5072786;28;20121;-75
2022/02/11 15:45:31;;;;;;;40.95;21.88;;;;;;;13.71;40.79;97666.34;5070032;28;20037;-74
2022/02/11 15:47:57;;;;;;;36.95;16.83;;;;;;;13.62;40.85;97675.06;5079423;28;20025;-75
2022/02/11 15:50:23;;;;;;;45.15;19.98;;;;;;;13.32;42.38;97691.53;5052190;28;20060;-75
2022/02/11 15:52:52;;;;;;;62.90;23.05;;;;;;;13.23;42.45;97700.25;5086299;28;20031;-75
2022/02/11 15:55:17;;;;;;;42.45;18.50;;;;;;;13.14;41.98;97698.19;5072678;28;20027;-74
2022/02/11 15:57:43;;;;;;;38.10;15.00;;;;;;;13.01;42.03;97695.47;5072399;28;20028;-74